Time,TemperatureF,DewpointF,PressureIn,WindDirection,WindDirectionDegrees,WindSpeedMPH,WindSpeedGustMPH,Humidity,HourlyPrecipIn,Conditions,Clouds,dailyrainin,SolarRadiationWatts/m^2,SoftwareType,DateUTC
2013-06-24 00:22:00,46.0,25.0,-100.00,ENE,72,7.0,11.0,44,0.00,,,0.00,0.000000,,2013-06-24 06:22:00,
2013-06-24 00:34:00,46.0,25.0,-100.00,ENE,72,7.0,11.0,44,0.00,,,0.00,0.000000,,2013-06-24 06:34:00,
2013-06-24 00:43:00,46.0,25.0,-100.00,ENE,72,7.0,11.0,44,0.00,,,0.00,0.000000,,2013-06-24 06:43:00,
2013-06-24 00:52:00,46.0,26.0,-100.00,ENE,75,5.0,12.0,46,0.00,,,0.00,0.000000,,2013-06-24 06:52:00,
2013-06-24 01:13:00,46.0,26.0,-100.00,ENE,75,5.0,12.0,46,0.00,,,0.00,0.000000,,2013-06-24 07:13:00,
2013-06-24 01:34:00,46.0,26.0,-100.00,ENE,75,5.0,12.0,46,0.00,,,0.00,0.000000,,2013-06-24 07:34:00,
2013-06-24 01:45:00,46.0,26.0,-100.00,ENE,75,5.0,12.0,46,0.00,,,0.00,0.000000,,2013-06-24 07:45:00,
2013-06-24 01:52:00,44.0,25.0,-100.00,ENE,73,6.0,10.0,46,0.00,,,0.00,0.000000,,2013-06-24 07:52:00,
2013-06-24 02:13:00,44.0,25.0,-100.00,ENE,73,6.0,10.0,46,0.00,,,0.00,0.000000,,2013-06-24 08:13:00,
2013-06-24 02:24:00,44.0,25.0,-100.00,ENE,73,6.0,10.0,46,0.00,,,0.00,0.000000,,2013-06-24 08:24:00,
2013-06-24 02:34:00,44.0,25.0,-100.00,ENE,73,6.0,10.0,46,0.00,,,0.00,0.000000,,2013-06-24 08:34:00,
2013-06-24 02:45:00,44.0,25.0,-100.00,ENE,73,6.0,10.0,46,0.00,,,0.00,0.000000,,2013-06-24 08:45:00,
2013-06-24 02:52:00,43.0,24.0,-100.00,ENE,75,7.0,10.0,47,0.00,,,0.00,0.000000,,2013-06-24 08:52:00,
2013-06-24 03:14:00,43.0,24.0,-100.00,ENE,75,7.0,10.0,47,0.00,,,0.00,0.000000,,2013-06-24 09:14:00,
2013-06-24 03:25:00,43.0,24.0,-100.00,ENE,75,7.0,10.0,47,0.00,,,0.00,0.000000,,2013-06-24 09:25:00,
2013-06-24 03:35:00,43.0,24.0,-100.00,ENE,75,7.0,10.0,47,0.00,,,0.00,0.000000,,2013-06-24 09:35:00,
2013-06-24 03:44:00,43.0,24.0,-100.00,ENE,75,7.0,10.0,47,0.00,,,0.00,0.000000,,2013-06-24 09:44:00,
2013-06-24 03:52:00,43.0,26.0,-100.00,ENE,75,6.0,11.0,50,0.00,,,0.00,0.000000,,2013-06-24 09:52:00,
2013-06-24 04:13:00,43.0,26.0,-100.00,ENE,75,6.0,11.0,50,0.00,,,0.00,0.000000,,2013-06-24 10:13:00,
2013-06-24 04:35:00,43.0,26.0,-100.00,ENE,75,6.0,11.0,50,0.00,,,0.00,0.000000,,2013-06-24 10:35:00,
2013-06-24 04:46:00,43.0,26.0,-100.00,ENE,75,6.0,11.0,50,0.00,,,0.00,0.000000,,2013-06-24 10:46:00,
2013-06-24 04:52:00,42.0,26.0,-100.00,ENE,73,6.0,11.0,52,0.00,,,0.00,0.000000,,2013-06-24 10:52:00,
2013-06-24 05:14:00,42.0,26.0,-100.00,ENE,73,6.0,11.0,52,0.00,,,0.00,0.000000,,2013-06-24 11:14:00,
2013-06-24 05:26:00,42.0,26.0,-100.00,ENE,73,6.0,11.0,52,0.00,,,0.00,0.000000,,2013-06-24 11:26:00,
2013-06-24 05:34:00,42.0,26.0,-100.00,ENE,73,6.0,11.0,52,0.00,,,0.00,0.000000,,2013-06-24 11:34:00,
2013-06-24 05:43:00,42.0,26.0,-100.00,ENE,73,6.0,11.0,52,0.00,,,0.00,0.000000,,2013-06-24 11:43:00,
2013-06-24 05:52:00,39.0,24.0,-100.00,ENE,73,5.0,10.0,55,0.00,,,0.00,1.000000,,2013-06-24 11:52:00,
2013-06-24 06:23:00,39.0,24.0,-100.00,ENE,73,5.0,10.0,55,0.00,,,0.00,1.000000,,2013-06-24 12:23:00,
2013-06-24 06:36:00,39.0,24.0,-100.00,ENE,73,5.0,10.0,55,0.00,,,0.00,1.000000,,2013-06-24 12:36:00,
2013-06-24 06:52:00,43.0,28.0,-100.00,ENE,73,3.0,8.0,54,0.00,,,0.00,32.000000,,2013-06-24 12:52:00,
2013-06-24 07:42:00,43.0,28.0,-100.00,ENE,73,3.0,8.0,54,0.00,,,0.00,32.000000,,2013-06-24 13:42:00,
2013-06-24 08:36:00,49.0,31.0,-100.00,NE,46,0.0,7.0,50,0.00,,,0.00,104.000000,,2013-06-24 14:36:00,
2013-06-24 08:43:00,49.0,31.0,-100.00,NE,46,0.0,7.0,50,0.00,,,0.00,104.000000,,2013-06-24 14:43:00,
2013-06-24 08:52:00,57.0,35.0,-100.00,West,274,0.0,6.0,43,0.00,,,0.00,367.000000,,2013-06-24 14:52:00,
2013-06-24 09:34:00,57.0,35.0,-100.00,West,274,0.0,6.0,43,0.00,,,0.00,367.000000,,2013-06-24 15:34:00,
2013-06-24 09:52:00,60.0,32.0,-100.00,NW,321,0.0,5.0,35,0.00,,,0.00,464.000000,,2013-06-24 15:52:00,
2013-06-24 10:23:00,60.0,32.0,-100.00,NW,321,0.0,5.0,35,0.00,,,0.00,464.000000,,2013-06-24 16:23:00,
2013-06-24 10:34:00,60.0,32.0,-100.00,NW,321,0.0,5.0,35,0.00,,,0.00,464.000000,,2013-06-24 16:34:00,
2013-06-24 10:43:00,60.0,32.0,-100.00,NW,321,0.0,5.0,35,0.00,,,0.00,464.000000,,2013-06-24 16:43:00,
2013-06-24 11:24:00,67.0,35.0,-100.00,West,271,5.0,11.0,31,0.00,,,0.00,734.000000,,2013-06-24 17:24:00,
2013-06-24 11:34:00,67.0,35.0,-100.00,West,271,5.0,11.0,31,0.00,,,0.00,734.000000,,2013-06-24 17:34:00,
2013-06-24 11:44:00,67.0,35.0,-100.00,West,271,5.0,11.0,31,0.00,,,0.00,734.000000,,2013-06-24 17:44:00,
2013-06-24 11:52:00,72.0,37.0,-100.00,WNW,293,6.0,13.0,28,0.00,,,0.00,846.000000,,2013-06-24 17:52:00,
2013-06-24 12:23:00,72.0,37.0,-100.00,WNW,293,6.0,13.0,28,0.00,,,0.00,846.000000,,2013-06-24 18:23:00,
2013-06-24 12:34:00,72.0,37.0,-100.00,WNW,293,6.0,13.0,28,0.00,,,0.00,846.000000,,2013-06-24 18:34:00,
2013-06-24 15:52:00,70.0,41.0,-100.00,SE,127,3.0,16.0,35,-99.99,,,-99.99,454.000000,,2013-06-24 21:52:00,
2013-06-24 16:52:00,69.0,34.0,-100.00,WSW,250,13.0,26.0,27,0.00,,,-99.99,483.000000,,2013-06-24 22:52:00,
2013-06-24 17:33:00,69.0,34.0,-100.00,WSW,250,13.0,26.0,27,0.00,,,-99.99,483.000000,,2013-06-24 23:33:00,
2013-06-24 17:43:00,69.0,34.0,-100.00,WSW,250,13.0,26.0,27,0.00,,,-99.99,483.000000,,2013-06-24 23:43:00,
2013-06-24 17:52:00,68.0,35.0,-100.00,WSW,244,11.0,23.0,30,0.00,,,-99.99,244.000000,,2013-06-24 23:52:00,
2013-06-24 18:22:00,68.0,35.0,-100.00,WSW,244,11.0,23.0,30,0.00,,,-99.99,244.000000,,2013-06-25 00:22:00,
2013-06-24 18:33:00,68.0,35.0,-100.00,WSW,244,11.0,23.0,30,0.00,,,-99.99,244.000000,,2013-06-25 00:33:00,
2013-06-24 18:45:00,68.0,35.0,-100.00,WSW,244,11.0,23.0,30,0.00,,,-99.99,244.000000,,2013-06-25 00:45:00,
2013-06-24 18:52:00,66.0,33.0,-100.00,WSW,244,10.0,21.0,29,0.00,,,-99.99,218.000000,,2013-06-25 00:52:00,
2013-06-24 19:23:00,66.0,33.0,-100.00,WSW,244,10.0,21.0,29,0.00,,,-99.99,218.000000,,2013-06-25 01:23:00,
2013-06-24 19:44:00,66.0,33.0,-100.00,WSW,244,10.0,21.0,29,0.00,,,-99.99,218.000000,,2013-06-25 01:44:00,
2013-06-24 19:52:00,61.0,34.0,-100.00,WSW,249,9.0,29.0,36,0.00,,,-99.99,85.000000,,2013-06-25 01:52:00,
2013-06-24 20:24:00,61.0,34.0,-100.00,WSW,249,9.0,29.0,36,0.00,,,-99.99,85.000000,,2013-06-25 02:24:00,
2013-06-24 20:35:00,61.0,34.0,-100.00,WSW,249,9.0,29.0,36,0.00,,,-99.99,85.000000,,2013-06-25 02:35:00,
2013-06-24 20:43:00,61.0,34.0,-100.00,WSW,249,9.0,29.0,36,0.00,,,-99.99,85.000000,,2013-06-25 02:43:00,
2013-06-24 21:37:00,59.0,35.0,-100.00,WSW,237,5.0,19.0,41,0.00,,,-99.99,23.000000,,2013-06-25 03:37:00,
2013-06-24 21:46:00,59.0,35.0,-100.00,WSW,237,5.0,19.0,41,0.00,,,-99.99,23.000000,,2013-06-25 03:46:00,
2013-06-24 21:52:00,58.0,37.0,-100.00,West,278,6.0,14.0,45,0.00,,,-99.99,0.000000,,2013-06-25 03:52:00,
2013-06-24 22:11:00,58.0,37.0,-100.00,West,278,6.0,14.0,45,0.00,,,-99.99,0.000000,,2013-06-25 04:11:00,
2013-06-24 22:22:00,58.0,37.0,-100.00,West,278,6.0,14.0,45,0.00,,,-99.99,0.000000,,2013-06-25 04:22:00,
2013-06-24 22:33:00,58.0,37.0,-100.00,West,278,6.0,14.0,45,0.00,,,-99.99,0.000000,,2013-06-25 04:33:00,
2013-06-24 22:42:00,58.0,37.0,-100.00,West,278,6.0,14.0,45,0.00,,,-99.99,0.000000,,2013-06-25 04:42:00,
2013-06-24 22:52:00,51.0,45.0,-100.00,West,277,4.0,14.0,81,0.00,,,-99.99,0.000000,,2013-06-25 04:52:00,
2013-06-24 23:22:00,51.0,45.0,-100.00,West,277,4.0,14.0,81,0.00,,,-99.99,0.000000,,2013-06-25 05:22:00,
2013-06-24 23:32:00,51.0,45.0,-100.00,West,277,4.0,14.0,81,0.00,,,-99.99,0.000000,,2013-06-25 05:32:00,
2013-06-24 23:44:00,51.0,45.0,-100.00,West,277,4.0,14.0,81,0.00,,,-99.99,0.000000,,2013-06-25 05:44:00,
2013-06-24 23:52:00,49.0,45.0,-100.00,NNE,27,1.0,10.0,87,0.01,,,-99.99,0.000000,,2013-06-25 05:52:00,